sensor_id;sensor_type;location;lat;lon;timestamp;pressure;altitude;pressure_sealevel;temperature;humidity
42433;BME280;28071;48.232;20.668;2023-06-26T00:00:06;99477.03;;;15.26;100.00
42433;BME280;28071;48.232;20.668;2023-06-26T00:05:08;99516.97;;;15.50;100.00
42433;BME280;28071;48.232;20.668;2023-06-26T00:10:08;99535.75;;;15.50;100.00
42433;BME280;28071;48.232;20.668;2023-06-26T00:15:09;99513.72;;;15.26;100.00
42433;BME280;28071;48.232;20.668;2023-06-26T00:20:09;99494.22;;;15.09;100.00
42433;BME280;28071;48.232;20.668;2023-06-26T00:25:10;99527.25;;;15.36;100.00
42433;BME280;28071;48.232;20.668;2023-06-26T00:30:11;99523.97;;;15.29;100.00
42433;BME280;28071;48.232;20.668;2023-06-26T00:35:11;99501.72;;;15.29;100.00
42433;BME280;28071;48.232;20.668;2023-06-26T00:40:12;99510.00;;;15.27;100.00
42433;BME280;28071;48.232;20.668;2023-06-26T00:45:13;99518.53;;;15.24;100.00
42433;BME280;28071;48.232;20.668;2023-06-26T00:50:13;99507.69;;;15.14;100.00
42433;BME280;28071;48.232;20.668;2023-06-26T00:55:16;99496.91;;;15.09;100.00
42433;BME280;28071;48.232;20.668;2023-06-26T01:00:17;99498.22;;;15.06;100.00
42433;BME280;28071;48.232;20.668;2023-06-26T01:05:19;99461.59;;;14.90;100.00
42433;BME280;28071;48.232;20.668;2023-06-26T01:10:21;99493.66;;;15.07;100.00
42433;BME280;28071;48.232;20.668;2023-06-26T01:15:21;99530.13;;;15.30;100.00
42433;BME280;28071;48.232;20.668;2023-06-26T01:20:22;99515.22;;;15.17;100.00
42433;BME280;28071;48.232;20.668;2023-06-26T01:25:48;99513.16;;;15.24;100.00
42433;BME280;28071;48.232;20.668;2023-06-26T01:30:52;99496.81;;;15.04;100.00
42433;BME280;28071;48.232;20.668;2023-06-26T01:35:52;99491.47;;;15.04;100.00
42433;BME280;28071;48.232;20.668;2023-06-26T01:40:54;99502.97;;;15.21;100.00
42433;BME280;28071;48.232;20.668;2023-06-26T01:45:59;99491.69;;;15.19;100.00
42433;BME280;28071;48.232;20.668;2023-06-26T01:51:00;99494.03;;;15.15;100.00
42433;BME280;28071;48.232;20.668;2023-06-26T01:56:13;99470.28;;;15.02;100.00
42433;BME280;28071;48.232;20.668;2023-06-26T02:01:14;99493.78;;;15.17;100.00
42433;BME280;28071;48.232;20.668;2023-06-26T02:06:14;99476.72;;;15.01;100.00
42433;BME280;28071;48.232;20.668;2023-06-26T02:11:15;99485.88;;;15.05;100.00
42433;BME280;28071;48.232;20.668;2023-06-26T02:16:15;99486.19;;;15.09;100.00
42433;BME280;28071;48.232;20.668;2023-06-26T02:21:16;99480.66;;;15.15;100.00
42433;BME280;28071;48.232;20.668;2023-06-26T02:26:16;99489.75;;;15.14;100.00
42433;BME280;28071;48.232;20.668;2023-06-26T02:31:16;99481.78;;;15.19;100.00
42433;BME280;28071;48.232;20.668;2023-06-26T02:36:17;99481.88;;;15.08;100.00
42433;BME280;28071;48.232;20.668;2023-06-26T02:41:17;99488.59;;;15.10;100.00
42433;BME280;28071;48.232;20.668;2023-06-26T02:46:18;99471.19;;;15.08;100.00
42433;BME280;28071;48.232;20.668;2023-06-26T02:51:18;99488.44;;;15.17;100.00
42433;BME280;28071;48.232;20.668;2023-06-26T02:56:19;99486.63;;;15.22;100.00
42433;BME280;28071;48.232;20.668;2023-06-26T03:01:19;99491.44;;;15.20;100.00
42433;BME280;28071;48.232;20.668;2023-06-26T03:06:20;99492.91;;;15.33;100.00
42433;BME280;28071;48.232;20.668;2023-06-26T03:11:21;99494.56;;;15.34;100.00
42433;BME280;28071;48.232;20.668;2023-06-26T03:16:21;99463.56;;;15.21;100.00
42433;BME280;28071;48.232;20.668;2023-06-26T03:21:22;99489.78;;;15.41;100.00
42433;BME280;28071;48.232;20.668;2023-06-26T03:26:22;99491.47;;;15.47;100.00
42433;BME280;28071;48.232;20.668;2023-06-26T03:31:27;99485.44;;;15.57;100.00
42433;BME280;28071;48.232;20.668;2023-06-26T03:36:27;99452.38;;;15.51;100.00
42433;BME280;28071;48.232;20.668;2023-06-26T03:41:28;99479.00;;;15.80;100.00
42433;BME280;28071;48.232;20.668;2023-06-26T03:46:28;99478.22;;;15.85;100.00
42433;BME280;28071;48.232;20.668;2023-06-26T03:51:29;99467.84;;;15.93;100.00
42433;BME280;28071;48.232;20.668;2023-06-26T03:56:29;99495.84;;;16.02;100.00
42433;BME280;28071;48.232;20.668;2023-06-26T04:01:30;99489.44;;;16.08;100.00
42433;BME280;28071;48.232;20.668;2023-06-26T04:06:30;99493.78;;;16.15;100.00
42433;BME280;28071;48.232;20.668;2023-06-26T04:11:33;99497.91;;;16.27;100.00
42433;BME280;28071;48.232;20.668;2023-06-26T04:16:34;99496.91;;;16.38;100.00
42433;BME280;28071;48.232;20.668;2023-06-26T04:21:34;99494.31;;;16.17;100.00
42433;BME280;28071;48.232;20.668;2023-06-26T04:26:34;99494.69;;;16.25;100.00
42433;BME280;28071;48.232;20.668;2023-06-26T04:31:35;99472.31;;;16.15;100.00
42433;BME280;28071;48.232;20.668;2023-06-26T04:36:36;99491.31;;;16.40;100.00
42433;BME280;28071;48.232;20.668;2023-06-26T04:41:39;99500.47;;;16.44;100.00
42433;BME280;28071;48.232;20.668;2023-06-26T04:46:39;99483.28;;;16.40;100.00
42433;BME280;28071;48.232;20.668;2023-06-26T04:51:42;99506.75;;;16.60;100.00
42433;BME280;28071;48.232;20.668;2023-06-26T04:56:43;99480.69;;;16.60;100.00
42433;BME280;28071;48.232;20.668;2023-06-26T05:01:47;99493.81;;;16.89;100.00
42433;BME280;28071;48.232;20.668;2023-06-26T05:06:48;99511.94;;;17.09;100.00
42433;BME280;28071;48.232;20.668;2023-06-26T05:11:49;99509.53;;;17.23;100.00
42433;BME280;28071;48.232;20.668;2023-06-26T05:16:49;99506.97;;;17.48;100.00
42433;BME280;28071;48.232;20.668;2023-06-26T05:21:50;99495.16;;;17.49;100.00
42433;BME280;28071;48.232;20.668;2023-06-26T05:26:52;99508.41;;;17.71;100.00
42433;BME280;28071;48.232;20.668;2023-06-26T05:31:53;99511.41;;;17.80;100.00
42433;BME280;28071;48.232;20.668;2023-06-26T05:36:57;99476.91;;;17.66;100.00
42433;BME280;28071;48.232;20.668;2023-06-26T05:41:59;99496.09;;;17.95;100.00
42433;BME280;28071;48.232;20.668;2023-06-26T05:46:59;99519.53;;;18.10;100.00
42433;BME280;28071;48.232;20.668;2023-06-26T05:52:00;99519.25;;;18.27;100.00
42433;BME280;28071;48.232;20.668;2023-06-26T05:57:01;99520.63;;;18.29;100.00
42433;BME280;28071;48.232;20.668;2023-06-26T06:02:02;99493.16;;;18.17;100.00
42433;BME280;28071;48.232;20.668;2023-06-26T06:07:03;99519.28;;;18.37;100.00
42433;BME280;28071;48.232;20.668;2023-06-26T06:12:05;99517.09;;;18.49;100.00
42433;BME280;28071;48.232;20.668;2023-06-26T06:17:06;99516.56;;;18.63;100.00
42433;BME280;28071;48.232;20.668;2023-06-26T06:22:06;99511.44;;;18.66;100.00
42433;BME280;28071;48.232;20.668;2023-06-26T06:27:07;99521.41;;;18.81;100.00
42433;BME280;28071;48.232;20.668;2023-06-26T06:32:07;99520.84;;;18.89;100.00
42433;BME280;28071;48.232;20.668;2023-06-26T06:37:08;99528.41;;;18.97;100.00
42433;BME280;28071;48.232;20.668;2023-06-26T06:42:08;99532.91;;;19.22;100.00
42433;BME280;28071;48.232;20.668;2023-06-26T06:47:09;99523.13;;;19.36;100.00
42433;BME280;28071;48.232;20.668;2023-06-26T06:52:09;99531.66;;;19.64;100.00
42433;BME280;28071;48.232;20.668;2023-06-26T06:57:09;99514.59;;;19.79;100.00
42433;BME280;28071;48.232;20.668;2023-06-26T07:02:10;99533.78;;;20.16;100.00
42433;BME280;28071;48.232;20.668;2023-06-26T07:07:12;99502.91;;;20.28;100.00
42433;BME280;28071;48.232;20.668;2023-06-26T07:12:13;99524.34;;;20.82;100.00
42433;BME280;28071;48.232;20.668;2023-06-26T07:17:14;99496.13;;;21.17;100.00
42433;BME280;28071;48.232;20.668;2023-06-26T07:22:14;99466.00;;;21.67;100.00
42433;BME280;28071;48.232;20.668;2023-06-26T07:27:15;99522.50;;;22.76;95.77
42433;BME280;28071;48.232;20.668;2023-06-26T07:32:16;99523.59;;;23.08;90.93
42433;BME280;28071;48.232;20.668;2023-06-26T07:37:16;99528.50;;;23.33;89.63
42433;BME280;28071;48.232;20.668;2023-06-26T07:42:17;99531.59;;;23.82;82.25
42433;BME280;28071;48.232;20.668;2023-06-26T07:47:17;99539.56;;;24.00;79.87
42433;BME280;28071;48.232;20.668;2023-06-26T07:52:19;99534.06;;;23.92;80.12
42433;BME280;28071;48.232;20.668;2023-06-26T07:57:19;99516.84;;;23.96;81.27
42433;BME280;28071;48.232;20.668;2023-06-26T08:02:19;99532.09;;;24.42;81.34
42433;BME280;28071;48.232;20.668;2023-06-26T08:07:20;99537.09;;;24.49;77.60
42433;BME280;28071;48.232;20.668;2023-06-26T08:12:21;99538.16;;;24.70;76.58
42433;BME280;28071;48.232;20.668;2023-06-26T08:17:21;99544.13;;;24.27;77.16
42433;BME280;28071;48.232;20.668;2023-06-26T08:22:21;99531.00;;;24.29;81.17
42433;BME280;28071;48.232;20.668;2023-06-26T08:27:22;99533.34;;;24.36;80.55
42433;BME280;28071;48.232;20.668;2023-06-26T08:32:22;99541.97;;;24.38;80.21
42433;BME280;28071;48.232;20.668;2023-06-26T08:37:23;99526.84;;;24.09;79.97
42433;BME280;28071;48.232;20.668;2023-06-26T08:42:23;99545.38;;;24.66;80.40
42433;BME280;28071;48.232;20.668;2023-06-26T08:47:24;99541.31;;;24.63;78.66
42433;BME280;28071;48.232;20.668;2023-06-26T08:52:29;99513.25;;;25.08;77.36
42433;BME280;28071;48.232;20.668;2023-06-26T08:57:30;99546.16;;;25.94;71.90
42433;BME280;28071;48.232;20.668;2023-06-26T09:02:32;99541.72;;;25.41;71.93
42433;BME280;28071;48.232;20.668;2023-06-26T09:07:32;99543.91;;;26.14;73.35
42433;BME280;28071;48.232;20.668;2023-06-26T09:12:33;99534.09;;;26.65;69.82
42433;BME280;28071;48.232;20.668;2023-06-26T09:17:39;99505.75;;;26.05;65.92
42433;BME280;28071;48.232;20.668;2023-06-26T09:22:43;99530.78;;;26.24;62.66
42433;BME280;28071;48.232;20.668;2023-06-26T09:27:47;99534.03;;;26.82;62.93
42433;BME280;28071;48.232;20.668;2023-06-26T09:32:48;99540.97;;;27.56;57.47
42433;BME280;28071;48.232;20.668;2023-06-26T09:37:50;99544.88;;;27.46;55.96
42433;BME280;28071;48.232;20.668;2023-06-26T09:42:51;99519.78;;;27.82;54.43
42433;BME280;28071;48.232;20.668;2023-06-26T09:47:51;99544.69;;;28.43;51.93
42433;BME280;28071;48.232;20.668;2023-06-26T09:52:52;99528.59;;;28.75;50.20
42433;BME280;28071;48.232;20.668;2023-06-26T09:57:54;99512.09;;;28.96;47.56
42433;BME280;28071;48.232;20.668;2023-06-26T10:02:57;99548.19;;;29.59;47.37
42433;BME280;28071;48.232;20.668;2023-06-26T10:07:58;99497.50;;;29.28;47.21
42433;BME280;28071;48.232;20.668;2023-06-26T10:13:08;99530.00;;;29.67;46.00
42433;BME280;28071;48.232;20.668;2023-06-26T10:18:13;99522.78;;;29.87;45.45
42433;BME280;28071;48.232;20.668;2023-06-26T10:23:16;99483.56;;;30.26;45.16
42433;BME280;28071;48.232;20.668;2023-06-26T10:28:20;99510.78;;;30.47;43.64
42433;BME280;28071;48.232;20.668;2023-06-26T10:33:22;99507.09;;;30.27;44.56
42433;BME280;28071;48.232;20.668;2023-06-26T10:38:49;99519.94;;;30.23;43.14
42433;BME280;28071;48.232;20.668;2023-06-26T10:44:10;99513.97;;;30.77;43.88
42433;BME280;28071;48.232;20.668;2023-06-26T10:49:12;99505.44;;;31.14;42.21
42433;BME280;28071;48.232;20.668;2023-06-26T10:54:14;99484.41;;;31.37;38.69
42433;BME280;28071;48.232;20.668;2023-06-26T11:04:36;99508.63;;;30.69;37.02
42433;BME280;28071;48.232;20.668;2023-06-26T11:09:53;99489.09;;;31.21;38.67
42433;BME280;28071;48.232;20.668;2023-06-26T11:14:55;99488.44;;;31.59;34.65
42433;BME280;28071;48.232;20.668;2023-06-26T11:19:55;99495.00;;;31.90;34.87
42433;BME280;28071;48.232;20.668;2023-06-26T11:24:59;99503.16;;;32.44;33.39
42433;BME280;28071;48.232;20.668;2023-06-26T11:29:59;99498.41;;;32.87;34.15
42433;BME280;28071;48.232;20.668;2023-06-26T11:35:00;99489.56;;;32.97;35.33
42433;BME280;28071;48.232;20.668;2023-06-26T11:40:21;99500.81;;;33.11;33.25
42433;BME280;28071;48.232;20.668;2023-06-26T11:45:22;99484.31;;;32.89;32.77
42433;BME280;28071;48.232;20.668;2023-06-26T11:50:23;99474.38;;;31.99;33.70
42433;BME280;28071;48.232;20.668;2023-06-26T11:55:25;99488.69;;;32.93;33.84
42433;BME280;28071;48.232;20.668;2023-06-26T12:00:25;99483.09;;;33.39;31.68
42433;BME280;28071;48.232;20.668;2023-06-26T12:05:26;99462.13;;;33.61;31.29
42433;BME280;28071;48.232;20.668;2023-06-26T12:10:27;99475.88;;;33.04;32.30
42433;BME280;28071;48.232;20.668;2023-06-26T12:15:28;99463.69;;;32.17;30.96
42433;BME280;28071;48.232;20.668;2023-06-26T12:20:28;99468.09;;;31.64;32.88
42433;BME280;28071;48.232;20.668;2023-06-26T12:25:32;99472.75;;;32.18;32.63
42433;BME280;28071;48.232;20.668;2023-06-26T12:30:32;99473.28;;;31.14;33.46
42433;BME280;28071;48.232;20.668;2023-06-26T12:35:33;99458.22;;;31.24;35.43
42433;BME280;28071;48.232;20.668;2023-06-26T12:40:34;99459.22;;;31.35;32.30
42433;BME280;28071;48.232;20.668;2023-06-26T12:45:38;99448.22;;;31.00;33.07
42433;BME280;28071;48.232;20.668;2023-06-26T12:50:46;99450.50;;;30.82;34.15
42433;BME280;28071;48.232;20.668;2023-06-26T12:55:46;99461.47;;;30.98;33.69
42433;BME280;28071;48.232;20.668;2023-06-26T13:00:47;99447.09;;;32.33;31.79
42433;BME280;28071;48.232;20.668;2023-06-26T13:05:47;99445.94;;;32.57;31.90
42433;BME280;28071;48.232;20.668;2023-06-26T13:10:48;99442.97;;;32.66;31.48
42433;BME280;28071;48.232;20.668;2023-06-26T13:15:48;99434.50;;;32.78;32.15
42433;BME280;28071;48.232;20.668;2023-06-26T13:20:48;99430.03;;;33.19;31.92
42433;BME280;28071;48.232;20.668;2023-06-26T13:25:49;99441.75;;;33.39;30.86
42433;BME280;28071;48.232;20.668;2023-06-26T13:30:50;99438.38;;;33.83;31.50
42433;BME280;28071;48.232;20.668;2023-06-26T13:35:52;99410.75;;;33.19;30.91
42433;BME280;28071;48.232;20.668;2023-06-26T13:40:53;99420.53;;;33.73;31.02
42433;BME280;28071;48.232;20.668;2023-06-26T13:45:54;99419.00;;;33.46;29.70
42433;BME280;28071;48.232;20.668;2023-06-26T13:50:55;99385.78;;;33.08;32.23
42433;BME280;28071;48.232;20.668;2023-06-26T13:55:56;99406.53;;;32.30;30.19
42433;BME280;28071;48.232;20.668;2023-06-26T14:00:56;99417.13;;;32.28;30.89
42433;BME280;28071;48.232;20.668;2023-06-26T14:05:57;99379.44;;;32.55;32.50
42433;BME280;28071;48.232;20.668;2023-06-26T14:10:58;99389.13;;;32.45;32.65
42433;BME280;28071;48.232;20.668;2023-06-26T14:15:59;99394.94;;;33.16;31.74
42433;BME280;28071;48.232;20.668;2023-06-26T14:20:59;99391.47;;;32.93;32.66
42433;BME280;28071;48.232;20.668;2023-06-26T14:26:00;99390.09;;;32.34;31.97
42433;BME280;28071;48.232;20.668;2023-06-26T14:31:00;99379.34;;;32.74;31.62
42433;BME280;28071;48.232;20.668;2023-06-26T14:36:01;99380.22;;;33.05;31.79
42433;BME280;28071;48.232;20.668;2023-06-26T14:41:01;99376.75;;;33.38;31.75
42433;BME280;28071;48.232;20.668;2023-06-26T14:46:01;99372.38;;;33.07;31.88
42433;BME280;28071;48.232;20.668;2023-06-26T14:51:02;99353.84;;;33.04;31.91
42433;BME280;28071;48.232;20.668;2023-06-26T14:56:03;99360.78;;;33.24;31.63
42433;BME280;28071;48.232;20.668;2023-06-26T15:01:03;99363.09;;;33.19;32.00
42433;BME280;28071;48.232;20.668;2023-06-26T15:06:04;99334.59;;;32.54;33.83
42433;BME280;28071;48.232;20.668;2023-06-26T15:11:04;99348.31;;;33.04;32.55
42433;BME280;28071;48.232;20.668;2023-06-26T15:16:05;99332.84;;;32.20;31.98
42433;BME280;28071;48.232;20.668;2023-06-26T15:21:05;99343.84;;;32.20;33.75
42433;BME280;28071;48.232;20.668;2023-06-26T15:26:06;99348.56;;;31.58;33.34
42433;BME280;28071;48.232;20.668;2023-06-26T15:31:06;99325.50;;;31.24;33.51
42433;BME280;28071;48.232;20.668;2023-06-26T15:36:06;99332.38;;;30.98;34.91
42433;BME280;28071;48.232;20.668;2023-06-26T15:41:07;99348.16;;;31.20;34.39
42433;BME280;28071;48.232;20.668;2023-06-26T15:46:08;99347.31;;;30.81;34.87
42433;BME280;28071;48.232;20.668;2023-06-26T15:51:08;99331.16;;;30.96;36.19
42433;BME280;28071;48.232;20.668;2023-06-26T15:56:12;99343.16;;;31.23;36.89
42433;BME280;28071;48.232;20.668;2023-06-26T16:01:13;99331.38;;;31.22;36.81
42433;BME280;28071;48.232;20.668;2023-06-26T16:06:13;99329.72;;;30.51;37.77
42433;BME280;28071;48.232;20.668;2023-06-26T16:11:14;99333.19;;;30.16;38.75
42433;BME280;28071;48.232;20.668;2023-06-26T16:16:15;99334.34;;;30.31;42.09
42433;BME280;28071;48.232;20.668;2023-06-26T16:21:15;99330.34;;;30.28;42.18
42433;BME280;28071;48.232;20.668;2023-06-26T16:26:16;99314.19;;;29.79;43.61
42433;BME280;28071;48.232;20.668;2023-06-26T16:31:17;99318.06;;;29.22;41.26
42433;BME280;28071;48.232;20.668;2023-06-26T16:36:17;99298.28;;;28.89;42.95
42433;BME280;28071;48.232;20.668;2023-06-26T16:41:18;99310.31;;;28.72;52.48
42433;BME280;28071;48.232;20.668;2023-06-26T16:46:18;99306.66;;;28.43;54.85
42433;BME280;28071;48.232;20.668;2023-06-26T16:51:19;99302.63;;;28.04;52.67
42433;BME280;28071;48.232;20.668;2023-06-26T16:56:19;99300.28;;;27.70;60.96
42433;BME280;28071;48.232;20.668;2023-06-26T17:01:20;99294.47;;;27.17;64.55
42433;BME280;28071;48.232;20.668;2023-06-26T17:06:21;99301.78;;;26.83;64.33
42433;BME280;28071;48.232;20.668;2023-06-26T17:11:21;99294.91;;;26.48;66.24
42433;BME280;28071;48.232;20.668;2023-06-26T17:16:22;99304.56;;;26.07;67.17
42433;BME280;28071;48.232;20.668;2023-06-26T17:21:22;99296.00;;;25.62;69.27
42433;BME280;28071;48.232;20.668;2023-06-26T17:26:23;99293.75;;;25.55;70.89
42433;BME280;28071;48.232;20.668;2023-06-26T17:31:23;99290.91;;;25.26;72.64
42433;BME280;28071;48.232;20.668;2023-06-26T17:36:24;99282.69;;;25.00;74.99
42433;BME280;28071;48.232;20.668;2023-06-26T17:41:24;99291.63;;;24.74;77.27
42433;BME280;28071;48.232;20.668;2023-06-26T17:46:24;99278.94;;;24.44;80.43
42433;BME280;28071;48.232;20.668;2023-06-26T17:51:25;99267.22;;;23.95;84.19
42433;BME280;28071;48.232;20.668;2023-06-26T17:56:25;99290.09;;;23.71;87.31
42433;BME280;28071;48.232;20.668;2023-06-26T18:01:26;99276.84;;;23.47;89.72
42433;BME280;28071;48.232;20.668;2023-06-26T18:06:26;99269.69;;;23.07;91.27
42433;BME280;28071;48.232;20.668;2023-06-26T18:11:27;99263.91;;;22.86;92.80
42433;BME280;28071;48.232;20.668;2023-06-26T18:16:28;99280.50;;;22.57;95.05
42433;BME280;28071;48.232;20.668;2023-06-26T18:21:29;99285.25;;;22.37;97.79
42433;BME280;28071;48.232;20.668;2023-06-26T18:26:29;99292.75;;;21.99;98.56
42433;BME280;28071;48.232;20.668;2023-06-26T18:31:30;99288.47;;;21.79;99.56
42433;BME280;28071;48.232;20.668;2023-06-26T18:36:30;99299.03;;;21.48;100.00
42433;BME280;28071;48.232;20.668;2023-06-26T18:41:31;99292.06;;;21.23;100.00
42433;BME280;28071;48.232;20.668;2023-06-26T18:46:31;99274.69;;;20.92;100.00
42433;BME280;28071;48.232;20.668;2023-06-26T18:51:33;99304.06;;;20.98;100.00
42433;BME280;28071;48.232;20.668;2023-06-26T18:56:34;99306.84;;;20.74;100.00
42433;BME280;28071;48.232;20.668;2023-06-26T19:01:34;99300.47;;;20.65;100.00
42433;BME280;28071;48.232;20.668;2023-06-26T19:06:35;99314.94;;;20.56;100.00
42433;BME280;28071;48.232;20.668;2023-06-26T19:11:35;99306.56;;;20.28;100.00
42433;BME280;28071;48.232;20.668;2023-06-26T19:16:36;99330.88;;;20.28;100.00
42433;BME280;28071;48.232;20.668;2023-06-26T19:21:36;99316.38;;;20.19;100.00
42433;BME280;28071;48.232;20.668;2023-06-26T19:26:36;99302.88;;;19.95;100.00
42433;BME280;28071;48.232;20.668;2023-06-26T19:31:37;99324.66;;;20.04;100.00
42433;BME280;28071;48.232;20.668;2023-06-26T19:36:37;99310.53;;;19.83;100.00
42433;BME280;28071;48.232;20.668;2023-06-26T19:41:38;99337.75;;;19.86;100.00
42433;BME280;28071;48.232;20.668;2023-06-26T19:46:38;99321.94;;;19.75;100.00
42433;BME280;28071;48.232;20.668;2023-06-26T19:51:39;99322.66;;;19.85;100.00
42433;BME280;28071;48.232;20.668;2023-06-26T19:56:39;99328.38;;;19.79;100.00
42433;BME280;28071;48.232;20.668;2023-06-26T20:01:40;99306.69;;;19.60;100.00
42433;BME280;28071;48.232;20.668;2023-06-26T20:06:42;99308.34;;;19.51;100.00
42433;BME280;28071;48.232;20.668;2023-06-26T20:11:43;99277.53;;;19.28;100.00
42433;BME280;28071;48.232;20.668;2023-06-26T20:16:43;99289.06;;;19.33;100.00
42433;BME280;28071;48.232;20.668;2023-06-26T20:21:45;99312.53;;;19.33;100.00
42433;BME280;28071;48.232;20.668;2023-06-26T20:26:45;99293.75;;;19.18;100.00
42433;BME280;28071;48.232;20.668;2023-06-26T20:31:46;99277.94;;;19.06;100.00
42433;BME280;28071;48.232;20.668;2023-06-26T20:36:46;99294.41;;;19.04;100.00
42433;BME280;28071;48.232;20.668;2023-06-26T20:41:47;99283.94;;;18.93;100.00
42433;BME280;28071;48.232;20.668;2023-06-26T20:46:48;99283.94;;;18.93;100.00
42433;BME280;28071;48.232;20.668;2023-06-26T20:51:56;99263.63;;;18.61;100.00
42433;BME280;28071;48.232;20.668;2023-06-26T20:57:00;99285.19;;;18.56;100.00
42433;BME280;28071;48.232;20.668;2023-06-26T21:02:01;99271.28;;;18.34;100.00
42433;BME280;28071;48.232;20.668;2023-06-26T21:07:01;99285.88;;;18.17;100.00
42433;BME280;28071;48.232;20.668;2023-06-26T21:12:02;99278.84;;;18.26;100.00
42433;BME280;28071;48.232;20.668;2023-06-26T21:17:03;99275.66;;;18.09;100.00
42433;BME280;28071;48.232;20.668;2023-06-26T21:22:04;99289.13;;;18.04;100.00
42433;BME280;28071;48.232;20.668;2023-06-26T21:27:05;99285.09;;;17.96;100.00
42433;BME280;28071;48.232;20.668;2023-06-26T21:32:06;99276.53;;;17.69;100.00
42433;BME280;28071;48.232;20.668;2023-06-26T21:37:06;99285.41;;;17.59;100.00
42433;BME280;28071;48.232;20.668;2023-06-26T21:42:08;99257.16;;;17.36;100.00
42433;BME280;28071;48.232;20.668;2023-06-26T21:47:08;99275.75;;;17.48;100.00
42433;BME280;28071;48.232;20.668;2023-06-26T21:52:10;99263.09;;;17.28;100.00
42433;BME280;28071;48.232;20.668;2023-06-26T21:57:11;99284.06;;;17.26;100.00
42433;BME280;28071;48.232;20.668;2023-06-26T22:02:11;99296.41;;;17.22;100.00
42433;BME280;28071;48.232;20.668;2023-06-26T22:07:12;99293.47;;;17.24;100.00
42433;BME280;28071;48.232;20.668;2023-06-26T22:12:12;99285.66;;;17.27;100.00
42433;BME280;28071;48.232;20.668;2023-06-26T22:17:13;99278.66;;;17.21;100.00
42433;BME280;28071;48.232;20.668;2023-06-26T22:22:13;99296.69;;;17.10;100.00
42433;BME280;28071;48.232;20.668;2023-06-26T22:27:14;99280.00;;;17.03;100.00
42433;BME280;28071;48.232;20.668;2023-06-26T22:32:14;99295.59;;;17.11;100.00
42433;BME280;28071;48.232;20.668;2023-06-26T22:37:16;99289.66;;;16.99;100.00
42433;BME280;28071;48.232;20.668;2023-06-26T22:42:16;99295.59;;;17.01;100.00
42433;BME280;28071;48.232;20.668;2023-06-26T22:47:17;99297.47;;;17.06;100.00
42433;BME280;28071;48.232;20.668;2023-06-26T22:52:17;99283.22;;;17.00;100.00
42433;BME280;28071;48.232;20.668;2023-06-26T22:57:18;99275.69;;;16.97;100.00
42433;BME280;28071;48.232;20.668;2023-06-26T23:02:19;99266.56;;;16.98;100.00
42433;BME280;28071;48.232;20.668;2023-06-26T23:07:20;99272.41;;;16.75;100.00
42433;BME280;28071;48.232;20.668;2023-06-26T23:12:21;99276.47;;;16.92;100.00
42433;BME280;28071;48.232;20.668;2023-06-26T23:17:21;99271.13;;;16.98;100.00
42433;BME280;28071;48.232;20.668;2023-06-26T23:22:21;99272.47;;;16.95;100.00
42433;BME280;28071;48.232;20.668;2023-06-26T23:27:22;99252.31;;;16.87;100.00
42433;BME280;28071;48.232;20.668;2023-06-26T23:32:22;99234.00;;;16.69;100.00
42433;BME280;28071;48.232;20.668;2023-06-26T23:37:23;99219.19;;;16.61;100.00
42433;BME280;28071;48.232;20.668;2023-06-26T23:42:26;99242.09;;;16.79;100.00
42433;BME280;28071;48.232;20.668;2023-06-26T23:47:27;99235.63;;;16.70;100.00
42433;BME280;28071;48.232;20.668;2023-06-26T23:52:27;99225.09;;;16.69;100.00
42433;BME280;28071;48.232;20.668;2023-06-26T23:57:28;99235.53;;;16.50;100.00
